sensor_id;sensor_type;location;lat;lon;timestamp;pressure;altitude;pressure_sealevel;temperature;humidity
77639;BME280;66802;52.574;14.398;2023-04-25T03:00:51;100595.44;;;7.74;71.48
77639;BME280;66802;52.574;14.398;2023-04-25T03:03:16;100591.50;;;7.78;71.58
77639;BME280;66802;52.574;14.398;2023-04-25T03:05:46;100595.59;;;7.82;71.51
77639;BME280;66802;52.574;14.398;2023-04-25T03:08:12;100592.06;;;7.82;71.92
77639;BME280;66802;52.574;14.398;2023-04-25T03:10:59;100588.38;;;7.83;71.24
77639;BME280;66802;52.574;14.398;2023-04-25T03:13:24;100582.72;;;7.76;71.33
77639;BME280;66802;52.574;14.398;2023-04-25T03:15:51;100586.97;;;7.79;71.71
77639;BME280;66802;52.574;14.398;2023-04-25T03:18:16;100586.97;;;7.79;71.54
77639;BME280;66802;52.574;14.398;2023-04-25T03:20:42;100584.97;;;7.81;71.17
77639;BME280;66802;52.574;14.398;2023-04-25T03:23:08;100581.03;;;7.75;71.54
77639;BME280;66802;52.574;14.398;2023-04-25T03:25:36;100589.94;;;7.76;71.76
77639;BME280;66802;52.574;14.398;2023-04-25T03:28:02;100580.75;;;7.78;71.45
77639;BME280;66802;52.574;14.398;2023-04-25T03:30:51;100577.75;;;7.81;71.55
77639;BME280;66802;52.574;14.398;2023-04-25T03:33:16;100591.06;;;7.83;72.21
77639;BME280;66802;52.574;14.398;2023-04-25T03:35:42;100581.03;;;7.85;72.00
77639;BME280;66802;52.574;14.398;2023-04-25T03:38:08;100578.91;;;7.88;71.31
77639;BME280;66802;52.574;14.398;2023-04-25T03:40:34;100590.22;;;7.92;70.80
77639;BME280;66802;52.574;14.398;2023-04-25T03:43:02;100586.81;;;7.90;71.51
77639;BME280;66802;52.574;14.398;2023-04-25T03:45:28;100590.34;;;7.90;71.88
77639;BME280;66802;52.574;14.398;2023-04-25T03:47:54;100589.50;;;7.90;72.02
77639;BME280;66802;52.574;14.398;2023-04-25T03:50:20;100593.75;;;7.92;71.33
77639;BME280;66802;52.574;14.398;2023-04-25T03:52:45;100598.00;;;7.85;71.81
77639;BME280;66802;52.574;14.398;2023-04-25T03:55:11;100595.19;;;7.87;71.84
77639;BME280;66802;52.574;14.398;2023-04-25T03:57:37;100595.19;;;7.87;71.20
77639;BME280;66802;52.574;14.398;2023-04-25T04:00:02;100593.75;;;7.92;71.80
77639;BME280;66802;52.574;14.398;2023-04-25T04:02:29;100595.44;;;7.84;72.12
77639;BME280;66802;52.574;14.398;2023-04-25T04:04:55;100599.84;;;7.94;71.33
77639;BME280;66802;52.574;14.398;2023-04-25T04:07:21;100593.47;;;7.95;71.02
77639;BME280;66802;52.574;14.398;2023-04-25T04:09:47;100599.97;;;7.93;71.52
77639;BME280;66802;52.574;14.398;2023-04-25T04:12:13;100610.31;;;7.97;71.69
77639;BME280;66802;52.574;14.398;2023-04-25T04:14:40;100595.59;;;8.01;70.95
77639;BME280;66802;52.574;14.398;2023-04-25T04:17:06;100606.66;;;7.98;71.50
77639;BME280;66802;52.574;14.398;2023-04-25T04:19:31;100609.47;;;7.97;71.50
77639;BME280;66802;52.574;14.398;2023-04-25T04:21:57;100609.88;;;8.02;71.90
77639;BME280;66802;52.574;14.398;2023-04-25T04:24:23;100612.44;;;8.03;71.67
77639;BME280;66802;52.574;14.398;2023-04-25T04:26:49;100618.09;;;8.00;71.54
77639;BME280;66802;52.574;14.398;2023-04-25T04:29:16;100612.56;;;8.02;72.07
77639;BME280;66802;52.574;14.398;2023-04-25T04:31:50;100622.19;;;8.04;71.23
77639;BME280;66802;52.574;14.398;2023-04-25T04:34:19;100623.06;;;8.05;71.84
77639;BME280;66802;52.574;14.398;2023-04-25T04:36:45;100618.25;;;8.09;71.63
77639;BME280;66802;52.574;14.398;2023-04-25T04:39:13;100614.97;;;8.15;71.50
77639;BME280;66802;52.574;14.398;2023-04-25T04:41:38;100621.22;;;8.15;71.13
77639;BME280;66802;52.574;14.398;2023-04-25T04:44:05;100618.66;;;8.14;71.43
77639;BME280;66802;52.574;14.398;2023-04-25T04:46:32;100627.16;;;8.19;71.64
77639;BME280;66802;52.574;14.398;2023-04-25T04:49:05;100624.88;;;8.14;71.31
77639;BME280;66802;52.574;14.398;2023-04-25T04:51:30;100629.28;;;8.15;71.50
77639;BME280;66802;52.574;14.398;2023-04-25T04:53:56;100624.59;;;8.17;71.30
77639;BME280;66802;52.574;14.398;2023-04-25T04:56:24;100622.63;;;8.19;71.53
77639;BME280;66802;52.574;14.398;2023-04-25T04:58:51;100627.69;;;8.22;70.84
77639;BME280;66802;52.574;14.398;2023-04-25T05:01:17;100622.31;;;8.22;71.01
77639;BME280;66802;52.574;14.398;2023-04-25T05:03:43;100621.34;;;8.23;71.40
77639;BME280;66802;52.574;14.398;2023-04-25T05:06:09;100621.34;;;8.23;71.40
77639;BME280;66802;52.574;14.398;2023-04-25T05:08:36;100619.09;;;8.28;70.76
77639;BME280;66802;52.574;14.398;2023-04-25T05:11:02;100620.22;;;8.26;71.54
77639;BME280;66802;52.574;14.398;2023-04-25T05:13:27;100621.34;;;8.23;71.52
77639;BME280;66802;52.574;14.398;2023-04-25T05:15:53;100625.75;;;8.34;70.48
77639;BME280;66802;52.574;14.398;2023-04-25T05:18:18;100625.47;;;8.37;71.40
77639;BME280;66802;52.574;14.398;2023-04-25T05:20:44;100629.72;;;8.39;71.10
77639;BME280;66802;52.574;14.398;2023-04-25T05:23:10;100630.31;;;8.43;70.93
77639;BME280;66802;52.574;14.398;2023-04-25T05:25:36;100629.44;;;8.43;71.83
77639;BME280;66802;52.574;14.398;2023-04-25T05:28:01;100631.41;;;8.50;71.27
77639;BME280;66802;52.574;14.398;2023-04-25T05:30:27;100644.28;;;8.56;70.26
77639;BME280;66802;52.574;14.398;2023-04-25T05:32:52;100634.09;;;8.50;71.35
77639;BME280;66802;52.574;14.398;2023-04-25T05:35:18;100638.78;;;8.48;71.83
77639;BME280;66802;52.574;14.398;2023-04-25T05:37:43;100637.50;;;8.52;71.42
77639;BME280;66802;52.574;14.398;2023-04-25T05:40:09;100632.25;;;8.51;71.32
77639;BME280;66802;52.574;14.398;2023-04-25T05:42:35;100647.28;;;8.53;71.32
77639;BME280;66802;52.574;14.398;2023-04-25T05:45:01;100645.25;;;8.55;70.68
77639;BME280;66802;52.574;14.398;2023-04-25T05:47:26;100646.69;;;8.59;70.76
77639;BME280;66802;52.574;14.398;2023-04-25T05:49:52;100651.22;;;8.59;70.85
77639;BME280;66802;52.574;14.398;2023-04-25T05:52:18;100642.44;;;8.57;71.95
77639;BME280;66802;52.574;14.398;2023-04-25T05:54:43;100653.34;;;8.65;71.05
77639;BME280;66802;52.574;14.398;2023-04-25T05:57:19;100638.19;;;8.64;71.68
77639;BME280;66802;52.574;14.398;2023-04-25T05:59:45;100646.66;;;8.69;70.42
77639;BME280;66802;52.574;14.398;2023-04-25T06:02:10;100648.38;;;8.70;71.29
77639;BME280;66802;52.574;14.398;2023-04-25T06:04:36;100643.84;;;8.70;70.84
77639;BME280;66802;52.574;14.398;2023-04-25T06:07:01;100646.38;;;8.72;70.57
77639;BME280;66802;52.574;14.398;2023-04-25T06:09:27;100649.34;;;8.78;70.25
77639;BME280;66802;52.574;14.398;2023-04-25T06:11:52;100650.91;;;8.81;70.30
77639;BME280;66802;52.574;14.398;2023-04-25T06:14:18;100646.50;;;8.80;70.13
77639;BME280;66802;52.574;14.398;2023-04-25T06:16:43;100654.69;;;8.88;70.15
77639;BME280;66802;52.574;14.398;2023-04-25T06:19:09;100657.25;;;8.90;70.28
77639;BME280;66802;52.574;14.398;2023-04-25T06:21:34;100654.88;;;8.87;70.66
77639;BME280;66802;52.574;14.398;2023-04-25T06:24:00;100657.09;;;8.91;70.67
77639;BME280;66802;52.574;14.398;2023-04-25T06:26:25;100659.50;;;8.94;70.88
77639;BME280;66802;52.574;14.398;2023-04-25T06:28:51;100653.97;;;8.96;70.26
77639;BME280;66802;52.574;14.398;2023-04-25T06:31:16;100658.66;;;8.94;70.14
77639;BME280;66802;52.574;14.398;2023-04-25T06:33:42;100657.94;;;8.92;70.08
77639;BME280;66802;52.574;14.398;2023-04-25T06:36:07;100657.66;;;8.95;69.73
77639;BME280;66802;52.574;14.398;2023-04-25T06:38:33;100656.25;;;8.91;69.91
77639;BME280;66802;52.574;14.398;2023-04-25T06:41:00;100656.81;;;8.94;69.79
77639;BME280;66802;52.574;14.398;2023-04-25T06:43:25;100659.50;;;8.94;70.33
77639;BME280;66802;52.574;14.398;2023-04-25T06:45:51;100660.22;;;8.96;70.54
77639;BME280;66802;52.574;14.398;2023-04-25T06:48:16;100668.13;;;9.07;69.57
77639;BME280;66802;52.574;14.398;2023-04-25T06:50:42;100657.19;;;9.09;69.65
77639;BME280;66802;52.574;14.398;2023-04-25T06:53:07;100669.41;;;9.03;70.15
77639;BME280;66802;52.574;14.398;2023-04-25T06:55:34;100663.03;;;9.04;69.65
77639;BME280;66802;52.574;14.398;2023-04-25T06:58:00;100667.13;;;8.99;70.34
77639;BME280;66802;52.574;14.398;2023-04-25T07:00:25;100668.97;;;9.08;69.20
77639;BME280;66802;52.574;14.398;2023-04-25T07:02:51;100668.66;;;9.11;68.76
77639;BME280;66802;52.574;14.398;2023-04-25T07:05:17;100670.34;;;9.12;69.16
77639;BME280;66802;52.574;14.398;2023-04-25T07:07:42;100672.31;;;9.20;68.61
77639;BME280;66802;52.574;14.398;2023-04-25T07:10:08;100674.56;;;9.24;68.53
77639;BME280;66802;52.574;14.398;2023-04-25T07:12:34;100668.06;;;9.27;68.37
77639;BME280;66802;52.574;14.398;2023-04-25T07:14:59;100671.13;;;9.32;68.15
77639;BME280;66802;52.574;14.398;2023-04-25T07:17:31;100669.09;;;9.43;67.00
77639;BME280;66802;52.574;14.398;2023-04-25T07:19:56;100667.81;;;9.47;67.95
77639;BME280;66802;52.574;14.398;2023-04-25T07:22:22;100670.50;;;9.47;68.08
77639;BME280;66802;52.574;14.398;2023-04-25T07:24:47;100670.47;;;9.57;67.66
77639;BME280;66802;52.574;14.398;2023-04-25T07:27:14;100672.00;;;9.60;67.79
77639;BME280;66802;52.574;14.398;2023-04-25T07:29:39;100670.66;;;9.73;68.60
77639;BME280;66802;52.574;14.398;2023-04-25T07:32:05;100677.09;;;9.90;66.94
77639;BME280;66802;52.574;14.398;2023-04-25T07:34:30;100684.47;;;9.88;66.93
77639;BME280;66802;52.574;14.398;2023-04-25T07:36:57;100676.84;;;9.83;67.80
77639;BME280;66802;52.574;14.398;2023-04-25T07:39:24;100681.69;;;9.80;67.46
77639;BME280;66802;52.574;14.398;2023-04-25T07:41:50;100681.41;;;9.83;67.09
77639;BME280;66802;52.574;14.398;2023-04-25T07:44:16;100672.59;;;9.81;67.33
77639;BME280;66802;52.574;14.398;2023-04-25T07:46:41;100685.81;;;9.74;67.34
77639;BME280;66802;52.574;14.398;2023-04-25T07:49:07;100691.69;;;9.70;67.31
77639;BME280;66802;52.574;14.398;2023-04-25T07:51:32;100689.97;;;9.69;67.62
77639;BME280;66802;52.574;14.398;2023-04-25T07:53:58;100693.97;;;9.65;67.98
77639;BME280;66802;52.574;14.398;2023-04-25T07:56:24;100685.88;;;9.65;68.04
77639;BME280;66802;52.574;14.398;2023-04-25T07:58:50;100701.19;;;9.64;68.21
77639;BME280;66802;52.574;14.398;2023-04-25T08:01:16;100694.50;;;9.68;68.13
77639;BME280;66802;52.574;14.398;2023-04-25T08:03:42;100706.72;;;9.72;67.69
77639;BME280;66802;52.574;14.398;2023-04-25T08:06:07;100702.50;;;9.60;67.92
77639;BME280;66802;52.574;14.398;2023-04-25T08:08:33;100709.88;;;9.58;68.32
77639;BME280;66802;52.574;14.398;2023-04-25T08:10:59;100709.66;;;9.51;68.82
77639;BME280;66802;52.574;14.398;2023-04-25T08:13:24;100715.38;;;9.66;68.84
77639;BME280;66802;52.574;14.398;2023-04-25T08:15:50;100716.84;;;9.61;68.49
77639;BME280;66802;52.574;14.398;2023-04-25T08:18:15;100724.91;;;9.61;68.84
77639;BME280;66802;52.574;14.398;2023-04-25T08:20:41;100730.59;;;9.58;68.56
77639;BME280;66802;52.574;14.398;2023-04-25T08:23:06;100722.03;;;9.72;67.87
77639;BME280;66802;52.574;14.398;2023-04-25T08:25:32;100726.28;;;9.65;67.83
77639;BME280;66802;52.574;14.398;2023-04-25T08:27:58;100721.19;;;9.71;67.45
77639;BME280;66802;52.574;14.398;2023-04-25T08:30:24;100735.03;;;9.76;68.45
77639;BME280;66802;52.574;14.398;2023-04-25T08:32:50;100736.75;;;9.77;68.42
77639;BME280;66802;52.574;14.398;2023-04-25T08:35:16;100724.66;;;9.81;67.85
77639;BME280;66802;52.574;14.398;2023-04-25T08:37:42;100742.78;;;9.89;68.41
77639;BME280;66802;52.574;14.398;2023-04-25T08:40:12;100735.78;;;9.96;67.88
77639;BME280;66802;52.574;14.398;2023-04-25T08:42:41;100733.22;;;10.04;67.70
77639;BME280;66802;52.574;14.398;2023-04-25T08:45:08;100731.72;;;9.92;67.53
77639;BME280;66802;52.574;14.398;2023-04-25T08:47:34;100751.66;;;9.99;67.60
77639;BME280;66802;52.574;14.398;2023-04-25T08:50:02;100748.19;;;9.89;67.22
77639;BME280;66802;52.574;14.398;2023-04-25T08:52:35;100755.22;;;9.72;67.73
77639;BME280;66802;52.574;14.398;2023-04-25T08:55:01;100756.09;;;9.63;68.75
77639;BME280;66802;52.574;14.398;2023-04-25T08:57:27;100762.78;;;9.59;69.10
77639;BME280;66802;52.574;14.398;2023-04-25T08:59:54;100769.56;;;9.63;69.09
77639;BME280;66802;52.574;14.398;2023-04-25T09:02:20;100770.56;;;9.72;69.39
77639;BME280;66802;52.574;14.398;2023-04-25T09:04:46;100776.59;;;9.83;69.08
77639;BME280;66802;52.574;14.398;2023-04-25T09:07:11;100772.88;;;9.94;69.11
77639;BME280;66802;52.574;14.398;2023-04-25T09:09:37;100772.69;;;9.96;69.52
77639;BME280;66802;52.574;14.398;2023-04-25T09:12:03;100781.38;;;9.89;70.10
77639;BME280;66802;52.574;14.398;2023-04-25T09:14:28;100784.13;;;9.80;69.63
77639;BME280;66802;52.574;14.398;2023-04-25T09:17:02;100787.28;;;9.66;70.07
77639;BME280;66802;52.574;14.398;2023-04-25T09:19:31;100784.06;;;9.52;70.86
77639;BME280;66802;52.574;14.398;2023-04-25T09:22:01;100785.63;;;9.55;70.56
77639;BME280;66802;52.574;14.398;2023-04-25T09:24:42;100797.16;;;9.47;71.10
77639;BME280;66802;52.574;14.398;2023-04-25T09:27:11;100794.44;;;9.47;71.59
77639;BME280;66802;52.574;14.398;2023-04-25T09:29:39;100795.16;;;9.49;71.49
77639;BME280;66802;52.574;14.398;2023-04-25T09:34:42;100788.44;;;9.73;71.91
77639;BME280;66802;52.574;14.398;2023-04-25T09:37:11;100797.13;;;9.94;70.90
77639;BME280;66802;52.574;14.398;2023-04-25T09:39:38;100787.25;;;10.12;70.61
77639;BME280;66802;52.574;14.398;2023-04-25T09:42:05;100780.81;;;10.23;69.38
77639;BME280;66802;52.574;14.398;2023-04-25T09:44:31;100790.63;;;10.42;68.24
77639;BME280;66802;52.574;14.398;2023-04-25T09:46:57;100797.97;;;10.49;68.40
77639;BME280;66802;52.574;14.398;2023-04-25T09:49:23;100792.28;;;10.88;67.30
77639;BME280;66802;52.574;14.398;2023-04-25T09:51:56;100793.41;;;11.21;66.80
77639;BME280;66802;52.574;14.398;2023-04-25T09:54:25;100789.28;;;11.34;64.42
77639;BME280;66802;52.574;14.398;2023-04-25T09:56:53;100787.94;;;11.13;63.58
77639;BME280;66802;52.574;14.398;2023-04-25T09:59:22;100791.78;;;10.92;65.09
77639;BME280;66802;52.574;14.398;2023-04-25T10:01:49;100794.06;;;10.79;65.61
77639;BME280;66802;52.574;14.398;2023-04-25T10:04:24;100795.28;;;10.67;66.30
77639;BME280;66802;52.574;14.398;2023-04-25T10:06:55;100807.94;;;10.67;66.56
77639;BME280;66802;52.574;14.398;2023-04-25T10:09:25;100805.69;;;10.62;65.96
77639;BME280;66802;52.574;14.398;2023-04-25T10:11:52;100803.84;;;10.63;65.04
77639;BME280;66802;52.574;14.398;2023-04-25T10:14:19;100805.78;;;10.88;65.85
77639;BME280;66802;52.574;14.398;2023-04-25T10:16:45;100808.63;;;11.04;65.28
77639;BME280;66802;52.574;14.398;2023-04-25T10:19:13;100808.63;;;11.22;63.81
77639;BME280;66802;52.574;14.398;2023-04-25T10:21:52;100812.31;;;11.21;62.49
77639;BME280;66802;52.574;14.398;2023-04-25T10:24:19;100808.56;;;11.14;62.14
77639;BME280;66802;52.574;14.398;2023-04-25T10:26:46;100807.16;;;11.10;61.83
77639;BME280;66802;52.574;14.398;2023-04-25T10:29:12;100810.31;;;11.23;60.94
77639;BME280;66802;52.574;14.398;2023-04-25T10:31:46;100806.88;;;11.64;60.72
77639;BME280;66802;52.574;14.398;2023-04-25T10:34:16;100804.50;;;11.87;57.23
77639;BME280;66802;52.574;14.398;2023-04-25T10:36:42;100812.19;;;12.00;55.38
77639;BME280;66802;52.574;14.398;2023-04-25T10:39:08;100818.53;;;12.25;55.21
77639;BME280;66802;52.574;14.398;2023-04-25T10:41:52;100814.94;;;12.08;54.23
77639;BME280;66802;52.574;14.398;2023-04-25T10:44:17;100815.66;;;12.18;54.35
77639;BME280;66802;52.574;14.398;2023-04-25T10:46:44;100810.81;;;12.46;53.35
77639;BME280;66802;52.574;14.398;2023-04-25T10:49:28;100814.28;;;12.72;50.40
77639;BME280;66802;52.574;14.398;2023-04-25T10:52:30;100817.84;;;12.73;49.66
77639;BME280;66802;52.574;14.398;2023-04-25T10:54:58;100830.13;;;12.43;48.29
77639;BME280;66802;52.574;14.398;2023-04-25T10:57:43;100825.66;;;12.26;48.08
77639;BME280;66802;52.574;14.398;2023-04-25T11:00:19;100832.47;;;11.96;48.58
77639;BME280;66802;52.574;14.398;2023-04-25T11:03:08;100815.38;;;11.95;49.47
77639;BME280;66802;52.574;14.398;2023-04-25T11:05:36;100821.09;;;12.26;50.49
77639;BME280;66802;52.574;14.398;2023-04-25T11:08:11;100824.81;;;12.25;48.86
77639;BME280;66802;52.574;14.398;2023-04-25T11:10:37;100833.09;;;12.24;49.82
77639;BME280;66802;52.574;14.398;2023-04-25T11:13:05;100831.34;;;12.15;48.97
77639;BME280;66802;52.574;14.398;2023-04-25T11:15:31;100843.31;;;12.04;49.51
77639;BME280;66802;52.574;14.398;2023-04-25T11:17:56;100835.63;;;11.91;48.69
77639;BME280;66802;52.574;14.398;2023-04-25T11:20:25;100837.47;;;11.91;48.88
77639;BME280;66802;52.574;14.398;2023-04-25T11:22:51;100839.03;;;11.93;48.61
77639;BME280;66802;52.574;14.398;2023-04-25T11:25:17;100835.78;;;11.90;47.95
77639;BME280;66802;52.574;14.398;2023-04-25T11:27:58;100846.41;;;12.09;46.46
77639;BME280;66802;52.574;14.398;2023-04-25T11:30:27;100853.22;;;12.21;48.01
77639;BME280;66802;52.574;14.398;2023-04-25T11:32:54;100842.59;;;12.28;48.18
77639;BME280;66802;52.574;14.398;2023-04-25T11:35:20;100852.25;;;12.30;48.61
77639;BME280;66802;52.574;14.398;2023-04-25T11:37:48;100853.81;;;12.41;48.27
77639;BME280;66802;52.574;14.398;2023-04-25T11:40:15;100848.03;;;12.44;49.22
77639;BME280;66802;52.574;14.398;2023-04-25T11:42:45;100856.56;;;12.57;48.13
77639;BME280;66802;52.574;14.398;2023-04-25T11:45:12;100865.19;;;12.53;47.16
77639;BME280;66802;52.574;14.398;2023-04-25T11:47:37;100867.19;;;12.42;46.61
77639;BME280;66802;52.574;14.398;2023-04-25T11:50:06;100866.97;;;12.36;47.30
77639;BME280;66802;52.574;14.398;2023-04-25T11:52:37;100868.47;;;12.30;47.15
77639;BME280;66802;52.574;14.398;2023-04-25T11:55:21;100880.84;;;12.33;48.15
77639;BME280;66802;52.574;14.398;2023-04-25T11:57:49;100875.34;;;12.17;46.30
77639;BME280;66802;52.574;14.398;2023-04-25T12:00:20;100878.91;;;12.17;46.42
77639;BME280;66802;52.574;14.398;2023-04-25T12:02:48;100872.09;;;12.13;44.65
77639;BME280;66802;52.574;14.398;2023-04-25T12:05:16;100875.94;;;12.02;44.67
77639;BME280;66802;52.574;14.398;2023-04-25T12:07:42;100884.91;;;12.03;47.13
77639;BME280;66802;52.574;14.398;2023-04-25T12:10:13;100884.28;;;12.09;46.36
77639;BME280;66802;52.574;14.398;2023-04-25T12:12:46;100881.06;;;12.14;45.55
77639;BME280;66802;52.574;14.398;2023-04-25T12:15:16;100882.06;;;12.13;44.86
77639;BME280;66802;52.574;14.398;2023-04-25T12:17:49;100878.38;;;12.14;44.77
77639;BME280;66802;52.574;14.398;2023-04-25T12:20:18;100874.88;;;12.21;45.71
77639;BME280;66802;52.574;14.398;2023-04-25T12:22:47;100874.88;;;12.21;46.51
77639;BME280;66802;52.574;14.398;2023-04-25T12:25:14;100885.75;;;12.29;47.63
77639;BME280;66802;52.574;14.398;2023-04-25T12:28:15;100884.72;;;12.30;45.47
77639;BME280;66802;52.574;14.398;2023-04-25T12:33:28;100896.47;;;12.13;47.18
77639;BME280;66802;52.574;14.398;2023-04-25T12:35:55;100900.94;;;11.96;46.52
77639;BME280;66802;52.574;14.398;2023-04-25T12:40:50;100916.16;;;11.54;46.58
77639;BME280;66802;52.574;14.398;2023-04-25T12:43:16;100916.47;;;11.33;45.96
77639;BME280;66802;52.574;14.398;2023-04-25T12:45:42;100921.16;;;11.49;46.59
77639;BME280;66802;52.574;14.398;2023-04-25T12:48:07;100911.91;;;11.51;47.53
77639;BME280;66802;52.574;14.398;2023-04-25T12:50:33;100914.50;;;11.61;48.22
77639;BME280;66802;52.574;14.398;2023-04-25T12:52:59;100917.16;;;11.53;46.48
77639;BME280;66802;52.574;14.398;2023-04-25T12:55:27;100920.09;;;11.42;46.40
77639;BME280;66802;52.574;14.398;2023-04-25T12:57:52;100919.72;;;11.19;46.06
77639;BME280;66802;52.574;14.398;2023-04-25T13:00:18;100916.16;;;11.18;46.88
77639;BME280;66802;52.574;14.398;2023-04-25T13:02:45;100923.97;;;11.21;46.17
77639;BME280;66802;52.574;14.398;2023-04-25T13:05:15;100923.97;;;11.21;46.71
77639;BME280;66802;52.574;14.398;2023-04-25T13:07:40;100919.72;;;11.19;45.97
77639;BME280;66802;52.574;14.398;2023-04-25T13:10:06;100918.78;;;11.10;46.06
77639;BME280;66802;52.574;14.398;2023-04-25T13:12:33;100925.41;;;11.16;46.63
77639;BME280;66802;52.574;14.398;2023-04-25T13:14:58;100921.03;;;11.32;47.32
77639;BME280;66802;52.574;14.398;2023-04-25T13:17:24;100927.75;;;11.46;47.18
77639;BME280;66802;52.574;14.398;2023-04-25T13:19:49;100930.59;;;11.45;44.51
77639;BME280;66802;52.574;14.398;2023-04-25T13:22:15;100929.81;;;11.52;44.16
77639;BME280;66802;52.574;14.398;2023-04-25T13:24:42;100929.66;;;11.54;43.41
77639;BME280;66802;52.574;14.398;2023-04-25T13:27:08;100927.03;;;11.62;43.93
77639;BME280;66802;52.574;14.398;2023-04-25T13:29:34;100932.53;;;11.52;44.96
77639;BME280;66802;52.574;14.398;2023-04-25T13:32:01;100941.00;;;11.57;46.29
77639;BME280;66802;52.574;14.398;2023-04-25T13:34:28;100938.22;;;11.49;44.84
77639;BME280;66802;52.574;14.398;2023-04-25T13:36:54;100937.25;;;11.32;45.15
77639;BME280;66802;52.574;14.398;2023-04-25T13:39:20;100949.66;;;11.08;45.18
77639;BME280;66802;52.574;14.398;2023-04-25T13:41:45;100956.03;;;10.89;45.94
77639;BME280;66802;52.574;14.398;2023-04-25T13:44:11;100954.63;;;10.85;45.51
77639;BME280;66802;52.574;14.398;2023-04-25T13:46:37;100962.56;;;10.86;46.76
77639;BME280;66802;52.574;14.398;2023-04-25T13:49:03;100954.47;;;10.86;45.90
77639;BME280;66802;52.574;14.398;2023-04-25T13:51:29;100955.69;;;11.02;45.10
77639;BME280;66802;52.574;14.398;2023-04-25T13:53:56;100958.84;;;11.15;44.21
77639;BME280;66802;52.574;14.398;2023-04-25T13:56:22;100951.50;;;11.25;42.99
77639;BME280;66802;52.574;14.398;2023-04-25T13:58:49;100947.81;;;11.44;43.58
77639;BME280;66802;52.574;14.398;2023-04-25T14:01:15;100950.75;;;11.50;43.28
77639;BME280;66802;52.574;14.398;2023-04-25T14:03:41;100958.00;;;11.50;42.19
77639;BME280;66802;52.574;14.398;2023-04-25T14:06:07;100968.59;;;11.43;43.82
77639;BME280;66802;52.574;14.398;2023-04-25T14:08:34;100962.00;;;11.28;44.19
77639;BME280;66802;52.574;14.398;2023-04-25T14:10:59;100974.44;;;11.21;44.46
77639;BME280;66802;52.574;14.398;2023-04-25T14:13:26;100979.16;;;11.19;45.41
77639;BME280;66802;52.574;14.398;2023-04-25T14:15:52;100979.31;;;11.17;45.83
77639;BME280;66802;52.574;14.398;2023-04-25T14:18:18;100964.56;;;11.47;44.39
77639;BME280;66802;52.574;14.398;2023-04-25T14:20:44;100961.16;;;11.81;42.60
77639;BME280;66802;52.574;14.398;2023-04-25T14:23:10;100960.91;;;12.10;43.09
77639;BME280;66802;52.574;14.398;2023-04-25T14:25:36;100970.88;;;12.09;43.45
77639;BME280;66802;52.574;14.398;2023-04-25T14:28:02;100968.16;;;12.09;42.35
77639;BME280;66802;52.574;14.398;2023-04-25T14:30:28;100970.91;;;11.91;42.32
77639;BME280;66802;52.574;14.398;2023-04-25T14:32:54;100975.84;;;11.96;42.72
77639;BME280;66802;52.574;14.398;2023-04-25T14:35:19;100981.56;;;11.93;43.01
77639;BME280;66802;52.574;14.398;2023-04-25T14:37:45;100978.69;;;11.59;43.01
77639;BME280;66802;52.574;14.398;2023-04-25T14:40:12;100982.88;;;11.53;44.41
77639;BME280;66802;52.574;14.398;2023-04-25T14:42:39;100990.59;;;11.30;45.16
77639;BME280;66802;52.574;14.398;2023-04-25T14:45:06;100992.03;;;11.25;44.96
77639;BME280;66802;52.574;14.398;2023-04-25T14:47:32;100996.66;;;11.15;45.44
77639;BME280;66802;52.574;14.398;2023-04-25T14:49:58;101000.13;;;11.07;44.77
77639;BME280;66802;52.574;14.398;2023-04-25T14:52:24;101000.34;;;10.96;44.64
77639;BME280;66802;52.574;14.398;2023-04-25T14:54:50;101004.66;;;10.89;45.41
77639;BME280;66802;52.574;14.398;2023-04-25T14:57:16;101003.94;;;10.87;45.51
77639;BME280;66802;52.574;14.398;2023-04-25T14:59:42;101003.50;;;10.91;45.43
77639;BME280;66802;52.574;14.398;2023-04-25T15:02:08;101007.19;;;10.90;47.12
77639;BME280;66802;52.574;14.398;2023-04-25T15:04:33;101010.94;;;10.80;46.97
77639;BME280;66802;52.574;14.398;2023-04-25T15:06:59;101016.41;;;10.70;47.24
77639;BME280;66802;52.574;14.398;2023-04-25T15:09:24;101019.78;;;10.72;47.14
77639;BME280;66802;52.574;14.398;2023-04-25T15:11:50;101015.72;;;10.58;46.60
77639;BME280;66802;52.574;14.398;2023-04-25T15:14:17;101024.69;;;10.59;47.35
77639;BME280;66802;52.574;14.398;2023-04-25T15:16:43;101022.69;;;10.51;47.59
77639;BME280;66802;52.574;14.398;2023-04-25T15:19:08;101020.19;;;10.31;47.26
77639;BME280;66802;52.574;14.398;2023-04-25T15:21:35;101023.31;;;10.36;47.12
77639;BME280;66802;52.574;14.398;2023-04-25T15:24:00;101025.88;;;10.28;48.28
77639;BME280;66802;52.574;14.398;2023-04-25T15:26:27;101024.19;;;10.27;49.28
77639;BME280;66802;52.574;14.398;2023-04-25T15:28:53;101031.97;;;10.30;50.57
77639;BME280;66802;52.574;14.398;2023-04-25T15:31:19;101025.44;;;10.42;49.32
77639;BME280;66802;52.574;14.398;2023-04-25T15:33:44;101024.72;;;10.40;48.97
77639;BME280;66802;52.574;14.398;2023-04-25T15:36:10;101025.28;;;10.43;48.60
77639;BME280;66802;52.574;14.398;2023-04-25T15:38:36;101023.56;;;10.42;48.00
77639;BME280;66802;52.574;14.398;2023-04-25T15:41:02;101021.06;;;10.31;48.38
77639;BME280;66802;52.574;14.398;2023-04-25T15:43:28;101022.63;;;10.34;48.75
77639;BME280;66802;52.574;14.398;2023-04-25T15:45:54;101025.88;;;10.28;49.58
77639;BME280;66802;52.574;14.398;2023-04-25T15:48:20;101021.00;;;10.50;49.43
77639;BME280;66802;52.574;14.398;2023-04-25T15:50:46;101019.06;;;10.80;49.79
77639;BME280;66802;52.574;14.398;2023-04-25T15:53:11;101023.88;;;10.76;48.38